Time;durP1;ratioP1;P1;durP2;ratioP2;P2;SDS_P1;SDS_P2;PMS_P1;PMS_P2;Temp;Humidity;BMP_temperature;BMP_pressure;BME280_temperature;BME280_humidity;BME280_pressure;Samples;Min_cycle;Max_cycle;Signal;HPM_P1;HPM_P2
2022/04/29 00:00:43;;;;;;;1.23;0.80;;;;;;;;;;21057961;28;20044;-84
2022/04/29 00:10:45;;;;;;;0.75;0.60;;;;;;;;;;21057124;28;20059;-84
2022/04/29 00:20:49;;;;;;;0.73;0.70;;;;;;;;;;21074331;28;20052;-84
2022/04/29 00:30:50;;;;;;;1.25;0.60;;;;;;;;;;21056422;28;20492;-84
2022/04/29 00:40:52;;;;;;;1.27;0.80;;;;;;;;;;21038579;28;20512;-84
2022/04/29 00:50:54;;;;;;;0.70;0.50;;;;;;;;;;21021783;28;20058;-84
2022/04/29 01:00:56;;;;;;;1.77;0.80;;;;;;;;;;21054523;28;20042;-84
2022/04/29 01:10:58;;;;;;;0.60;0.60;;;;;;;;;;21053907;28;20052;-84
2022/04/29 01:21:03;;;;;;;1.23;0.70;;;;;;;;;;21053402;28;20040;-84
2022/04/29 01:31:06;;;;;;;0.85;0.50;;;;;;;;;;21071414;28;20109;-84
2022/04/29 01:41:08;;;;;;;1.60;1.40;;;;;;;;;;21052860;28;20036;-84
2022/04/29 01:51:15;;;;;;;1.33;0.70;;;;;;;;;;21044094;28;20550;-85
2022/04/29 02:01:19;;;;;;;1.40;0.88;;;;;;;;;;21499222;22;20079;-78
2022/04/29 02:11:21;;;;;;;1.80;0.70;;;;;;;;;;20968453;28;20069;-78
2022/04/29 02:21:35;;;;;;;1.10;0.65;;;;;;;;;;20982198;28;20063;-80
2022/04/29 02:31:37;;;;;;;0.50;0.50;;;;;;;;;;20981490;28;20444;-80
2022/04/29 02:41:39;;;;;;;1.00;0.60;;;;;;;;;;20981512;28;20494;-80
2022/04/29 02:51:41;;;;;;;1.02;0.70;;;;;;;;;;20980393;28;20051;-80
2022/04/29 03:01:42;;;;;;;1.70;0.60;;;;;;;;;;20979211;28;20065;-80
2022/04/29 03:11:47;;;;;;;1.25;1.05;;;;;;;;;;20978445;28;20048;-80
2022/04/29 03:21:51;;;;;;;1.13;0.60;;;;;;;;;;20977345;28;20041;-80
2022/04/29 03:31:52;;;;;;;1.45;0.70;;;;;;;;;;20976716;28;20313;-80
2022/04/29 03:42:29;;;;;;;1.00;0.60;;;;;;;;;;20978183;28;20076;-80
2022/04/29 03:52:31;;;;;;;0.90;0.60;;;;;;;;;;20974743;28;20041;-79
2022/04/29 04:02:33;;;;;;;1.83;0.60;;;;;;;;;;20975403;28;20061;-78
2022/04/29 04:12:38;;;;;;;1.60;0.80;;;;;;;;;;20972868;28;20044;-80
2022/04/29 04:23:00;;;;;;;0.60;0.60;;;;;;;;;;20990805;28;20063;-80
2022/04/29 04:33:02;;;;;;;1.08;0.80;;;;;;;;;;20988875;28;20051;-80
2022/04/29 04:43:04;;;;;;;0.75;0.43;;;;;;;;;;20955399;28;20052;-80
2022/04/29 04:53:08;;;;;;;1.13;0.52;;;;;;;;;;20954599;28;20040;-80
2022/04/29 05:03:09;;;;;;;1.58;0.63;;;;;;;;;;20987280;28;20060;-80
2022/04/29 05:13:34;;;;;;;0.73;0.60;;;;;;;;;;20988307;28;20042;-81
2022/04/29 05:23:37;;;;;;;1.00;0.55;;;;;;;;;;20975845;28;20101;-80
2022/04/29 05:33:58;;;;;;;0.60;0.60;;;;;;;;;;21003697;28;20120;-81
2022/04/29 05:44:18;;;;;;;0.70;0.70;;;;;;;;;;21002991;28;20098;-80
2022/04/29 05:54:23;;;;;;;0.60;0.50;;;;;;;;;;20984215;28;20056;-80
2022/04/29 06:04:26;;;;;;;1.27;0.80;;;;;;;;;;20983938;28;20049;-81
2022/04/29 06:14:28;;;;;;;1.17;0.57;;;;;;;;;;20982779;28;20115;-80
2022/04/29 06:25:02;;;;;;;1.13;0.60;;;;;;;;;;20965705;28;20059;-80
2022/04/29 06:35:12;;;;;;;1.92;0.85;;;;;;;;;;20965257;28;20174;-81
2022/04/29 06:45:14;;;;;;;1.08;0.70;;;;;;;;;;20980731;28;20054;-81
2022/04/29 06:55:40;;;;;;;1.17;0.75;;;;;;;;;;20998686;28;20102;-81
2022/04/29 07:05:42;;;;;;;1.48;0.70;;;;;;;;;;20995971;28;20052;-81
2022/04/29 07:15:48;;;;;;;1.38;0.80;;;;;;;;;;20962607;28;20041;-81
2022/04/29 07:26:16;;;;;;;1.52;0.70;;;;;;;;;;20995199;28;20079;-81
2022/04/29 07:46:43;;;;;;;1.70;0.70;;;;;;;;;;20975500;28;20082;-81
2022/04/29 07:57:04;;;;;;;1.20;0.73;;;;;;;;;;20978320;28;20083;-80
2022/04/29 08:07:06;;;;;;;1.13;0.80;;;;;;;;;;20974091;28;20492;-80
2022/04/29 08:17:09;;;;;;;1.40;1.08;;;;;;;;;;20955936;28;20164;-81
2022/04/29 08:27:16;;;;;;;1.13;0.65;;;;;;;;;;20972704;28;20075;-81
2022/04/29 08:37:26;;;;;;;0.98;0.88;;;;;;;;;;20957331;28;20460;-81
2022/04/29 08:47:28;;;;;;;1.02;0.80;;;;;;;;;;20971961;28;20441;-81
2022/04/29 09:08:02;;;;;;;0.85;0.82;;;;;;;;;;20988560;28;20054;-81
2022/04/29 09:18:03;;;;;;;1.23;0.70;;;;;;;;;;20970201;28;20056;-81
2022/04/29 09:28:05;;;;;;;1.00;0.70;;;;;;;;;;20969907;28;20070;-81
2022/04/29 09:48:56;;;;;;;0.93;0.65;;;;;;;;;;20968807;28;20088;-81
2022/04/29 09:58:58;;;;;;;1.27;0.90;;;;;;;;;;20986834;28;20056;-81
2022/04/29 10:09:00;;;;;;;2.45;0.85;;;;;;;;;;20954474;28;20048;-81
2022/04/29 10:29:36;;;;;;;1.70;0.98;;;;;;;;;;20998788;28;20044;-81
2022/04/29 10:39:38;;;;;;;1.98;0.93;;;;;;;;;;20981472;28;20494;-81
2022/04/29 10:49:40;;;;;;;1.80;0.80;;;;;;;;;;20998743;28;20478;-81
2022/04/29 11:00:00;;;;;;;1.30;0.87;;;;;;;;;;20980473;28;20060;-81
2022/04/29 11:10:02;;;;;;;2.05;0.98;;;;;;;;;;20996622;28;20110;-81
2022/04/29 11:20:18;;;;;;;1.33;0.90;;;;;;;;;;20977707;28;20045;-81
2022/04/29 11:30:20;;;;;;;2.13;1.05;;;;;;;;;;20994460;28;20048;-81
2022/04/29 11:40:28;;;;;;;0.90;0.70;;;;;;;;;;20977711;28;20041;-79
2022/04/29 11:50:31;;;;;;;1.58;0.90;;;;;;;;;;20975439;28;20041;-79
2022/04/29 12:00:34;;;;;;;1.00;0.90;;;;;;;;;;20992596;28;20052;-81
2022/04/29 12:10:36;;;;;;;1.52;0.80;;;;;;;;;;20974296;28;20700;-81
2022/04/29 12:20:44;;;;;;;1.27;0.90;;;;;;;;;;20973748;28;20458;-81
2022/04/29 12:41:22;;;;;;;2.00;1.10;;;;;;;;;;20989811;28;20084;-81
2022/04/29 12:51:25;;;;;;;2.72;1.20;;;;;;;;;;20972019;28;20052;-81
2022/04/29 13:01:35;;;;;;;1.25;1.15;;;;;;;;;;20988738;28;20059;-81
2022/04/29 13:11:49;;;;;;;1.58;1.13;;;;;;;;;;20971120;28;20110;-81
2022/04/29 13:22:07;;;;;;;2.15;1.48;;;;;;;;;;20953462;28;20049;-81
2022/04/29 13:32:09;;;;;;;1.90;1.67;;;;;;;;;;20953564;28;20052;-81
2022/04/29 13:42:13;;;;;;;2.00;1.58;;;;;;;;;;20954079;28;20049;-81
2022/04/29 14:02:35;;;;;;;2.50;1.20;;;;;;;;;;20983758;28;20110;-81
2022/04/29 14:12:38;;;;;;;2.53;1.30;;;;;;;;;;20984940;28;20110;-81
2022/04/29 14:22:40;;;;;;;1.55;1.27;;;;;;;;;;20982919;28;20044;-81
2022/04/29 14:32:47;;;;;;;2.13;1.30;;;;;;;;;;20982282;28;20056;-81
2022/04/29 14:42:50;;;;;;;2.63;1.30;;;;;;;;;;20981565;28;20442;-81
2022/04/29 14:52:52;;;;;;;3.05;1.67;;;;;;;;;;20998512;28;20053;-81
2022/04/29 15:02:53;;;;;;;1.25;1.15;;;;;;;;;;20978731;28;20053;-81
2022/04/29 15:23:16;;;;;;;2.17;1.35;;;;;;;;;;20995849;28;20037;-81
2022/04/29 15:33:19;;;;;;;2.28;1.45;;;;;;;;;;20978820;28;20395;-81
2022/04/29 15:43:22;;;;;;;1.40;1.00;;;;;;;;;;20976462;28;20478;-81
2022/04/29 15:53:25;;;;;;;1.98;1.30;;;;;;;;;;20959495;28;20052;-80
2022/04/29 16:03:27;;;;;;;1.80;1.52;;;;;;;;;;20958241;28;20056;-81
2022/04/29 16:13:29;;;;;;;1.42;1.30;;;;;;;;;;20990670;28;20053;-81
2022/04/29 16:33:51;;;;;;;3.67;1.58;;;;;;;;;;20990348;28;20090;-79
2022/04/29 16:43:54;;;;;;;2.05;1.40;;;;;;;;;;20972128;28;20052;-79
2022/04/29 16:53:56;;;;;;;2.15;1.30;;;;;;;;;;20990007;28;20479;-79
2022/04/29 17:04:00;;;;;;;1.67;1.42;;;;;;;;;;20971367;28;20110;-79
2022/04/29 17:14:01;;;;;;;1.73;1.05;;;;;;;;;;20988434;28;20053;-79
2022/04/29 17:24:03;;;;;;;1.67;1.20;;;;;;;;;;21001399;28;20044;-81
2022/04/29 17:34:05;;;;;;;1.50;1.20;;;;;;;;;;20986998;28;20052;-79
2022/04/29 17:44:07;;;;;;;1.23;0.98;;;;;;;;;;21003721;28;20056;-79
2022/04/29 17:54:09;;;;;;;1.10;0.98;;;;;;;;;;21003054;28;20041;-79
2022/04/29 18:04:11;;;;;;;1.38;0.90;;;;;;;;;;21002576;28;20056;-80
2022/04/29 18:14:13;;;;;;;0.90;0.85;;;;;;;;;;20899570;22;20053;-79
2022/04/29 18:24:15;;;;;;;1.40;0.90;;;;;;;;;;20835920;28;20058;-79
2022/04/29 18:34:18;;;;;;;1.73;0.88;;;;;;;;;;20833137;28;20104;-79
2022/04/29 18:44:20;;;;;;;2.33;0.90;;;;;;;;;;20816498;28;20398;-79
2022/04/29 18:54:21;;;;;;;1.52;0.98;;;;;;;;;;20815432;28;20060;-79
2022/04/29 19:04:24;;;;;;;1.17;0.70;;;;;;;;;;20814787;28;20069;-79
2022/04/29 19:14:26;;;;;;;1.02;0.70;;;;;;;;;;20831604;28;20046;-79
2022/04/29 19:24:28;;;;;;;2.25;0.80;;;;;;;;;;20831143;28;20049;-79
2022/04/29 19:34:29;;;;;;;1.27;0.73;;;;;;;;;;20829963;28;20037;-79
2022/04/29 19:44:31;;;;;;;1.00;0.70;;;;;;;;;;20829144;28;20056;-79
2022/04/29 19:54:34;;;;;;;1.75;0.80;;;;;;;;;;20810659;28;20492;-79
2022/04/29 20:04:38;;;;;;;1.75;0.68;;;;;;;;;;20827249;28;20057;-79
2022/04/29 20:14:40;;;;;;;1.38;0.63;;;;;;;;;;20809516;28;20559;-79
2022/04/29 20:24:42;;;;;;;0.70;0.55;;;;;;;;;;20825864;28;20403;-79
2022/04/29 20:34:45;;;;;;;0.93;0.70;;;;;;;;;;20807875;28;20060;-78
2022/04/29 20:44:48;;;;;;;1.58;0.80;;;;;;;;;;20807615;28;20061;-79
2022/04/29 20:54:52;;;;;;;1.08;0.90;;;;;;;;;;20823565;28;20773;-79
2022/04/29 21:04:54;;;;;;;1.02;0.73;;;;;;;;;;20823808;28;20111;-79
2022/04/29 21:14:57;;;;;;;2.58;0.82;;;;;;;;;;20823479;28;20053;-79
2022/04/29 21:24:58;;;;;;;1.25;0.70;;;;;;;;;;20822874;28;20565;-79
2022/04/29 21:35:00;;;;;;;1.13;0.60;;;;;;;;;;20805356;28;20045;-79
2022/04/29 21:45:03;;;;;;;0.80;0.80;;;;;;;;;;20822371;28;20085;-79
2022/04/29 21:55:05;;;;;;;1.17;0.80;;;;;;;;;;20804003;28;20046;-79
2022/04/29 22:05:07;;;;;;;0.77;0.77;;;;;;;;;;20825384;28;20057;-79
2022/04/29 22:15:09;;;;;;;0.75;0.60;;;;;;;;;;20836508;28;20545;-79
2022/04/29 22:25:12;;;;;;;0.70;0.70;;;;;;;;;;20835712;28;20096;-79
2022/04/29 22:35:16;;;;;;;0.70;0.70;;;;;;;;;;20817388;28;20057;-79
2022/04/29 22:45:23;;;;;;;1.40;0.90;;;;;;;;;;20816806;28;20053;-79
2022/04/29 22:55:24;;;;;;;0.85;0.80;;;;;;;;;;20834814;28;20042;-79
2022/04/29 23:05:28;;;;;;;0.80;0.77;;;;;;;;;;20815393;28;20061;-79
2022/04/29 23:15:29;;;;;;;1.00;0.90;;;;;;;;;;20797060;28;20049;-79
2022/04/29 23:25:32;;;;;;;1.17;0.85;;;;;;;;;;20813749;28;20119;-79
2022/04/29 23:35:34;;;;;;;1.33;0.95;;;;;;;;;;20812496;28;20052;-79
2022/04/29 23:45:36;;;;;;;1.00;0.90;;;;;;;;;;20829073;28;20083;-79
2022/04/29 23:55:38;;;;;;;1.00;0.90;;;;;;;;;;20811315;28;20415;-79
